KFLL/FLL METAR and TAF weather

Enter ICAO airport designator
Station Type Date Time Source
KFLL METAR 2022/08/13 10:53 UTC NOAA

KFLL 131053Z 32004KT 10SM SCT025 SCT100 26/23 A3000 RMK AO2 SLP159 T02610233


Station Type Date Time Source
KFLL Decoded METAR 2022/08/13 10:53 UTC NOAA

FORT LAUDERDALE/HOLLYWOOD, FL, United States (KFLL) 26-04N 080-09W 30M
Aug 13, 2022 - 06:53 AM EDT / 2022.08.13 1053 UTC
Wind: from the NW (320 degrees) at 5 MPH (4 KT):0
Visibility: 10 mile(s):0
Sky conditions: partly cloudy
Temperature: 79.0 F (26.1 C)
Dew Point: 73.9 F (23.3 C)
Relative Humidity: 84%
Pressure (altimeter): 30 in. Hg (1015 hPa)
ob: KFLL 131053Z 32004KT 10SM SCT025 SCT100 26/23 A3000 RMK AO2 SLP159 T02610233
cycle: 11

Station Type Date Time Source
KFLL TAF 2022/08/13 12:22 UTC NOAA

TAF KFLL 131120Z 1312/1418 VRB03KT P6SM FEW025 SCT100
FM131300 14005KT P6SM FEW025 SCT250
FM131500 13009KT P6SM VCTS SCT030CB BKN250
FM140200 VRB04KT P6SM FEW030 SCT250
FM141200 VRB05KT P6SM VCSH SCT030 BKN150

Example: see airport list